4IL9 weather

Unzicker Airport
Benson, Illinois, United States

Public forecast

Using degrees Fahrenheit for public forecast. Weather courtesy of forecast.io.

METAR (pilot weather report)

Closest report is Marshall County Airport, 16.7 nm (30.9 km) NW. Retrieved 2019/06/20 20:35 UTC (0 seconds ago):

KC75 202035Z AUTO 32005KT 10SM SCT038 SCT048 SCT055 23/15 A2978 RMK AO2 T02340151

TAF (pilot weather forecast)

Closest forecast is Central Illinois Regional Airport at Bloomington-Normal, 23.0 nm (42.6 km) SSE. Retrieved 2019/06/20 18:42 UTC (2 hours ago):

TAF KBMI 201740Z 2018/2118 31012G20KT P6SM OVC015 FM202000 33010G18KT P6SM SCT015 BKN025 FM202200 34008KT P6SM SCT025 FM211200 12006KT P6SM BKN070